Aeroporto :
LOGIN :

Iscrizione | Disclaimer

   EN    FR    IT 

 










Sommario :    VFR   VFR Marginale   IFR   IFR Intensivo   IFR Molto Intensivo
Visibilità : 
Base nubi : 
>= 8 km
>= 3000ft
5 / 8 km
1000 / 3000 ft
1500m / 5 km
500 / 1000 ft
800 / 1500m
200 / 500 ft
< 800m
< 200 ft
Simboli :   Temporali  Nebbia  Neve Forte  Precipitazioni Forti  Vento > 20 kt
SIGMETs :   Varie  Temporali  Ghiacco  Turbolenza  Onda orograficha  Ceneri Vulcaniche






- Altitudine del aeroporto : 126 ft
- Codice IATA : TIA


LATI - Rinas Mother Teresa Arpt - Tirana

ULTIMO METAR :
  • 182120Z 15003KT CAVOK 06/05 Q1020 NOSIG

METARs OBSOLETI :
  • 182050Z 17003KT CAVOK 07/06 Q1021 NOSIG
  • 182020Z 17004KT CAVOK 06/05 Q1020 NOSIG
  • 181950Z 16003KT 8000 NSC 06/04 Q1021 NOSIG
  • 181920Z 15003KT CAVOK 07/05 Q1020 NOSIG
  • 181850Z 17004KT CAVOK 08/07 Q1020 NOSIG

TAF TAF LATI
Valido dal 18 a 18 ore il 19 a 18 ore UTC


181700Z 1818/1918 VRB03KT CAVOK
PROB40 1821/1903 1500 BCFG NSC
BECMG 1914/1916 20010KT SCT030 BKN100



MetMap, La meteo Aeronautica in un colpo d'occhio ! - Copyright ORBIFLY Dicembre 2007 - Disclaimer

ORBIFLY MET'MAP TEAM :

Programmazione e sviluppo : Alexandra Zaïnal
Concezione : Baudouin d'Aumeries
Aiuto per la programmazione : Marc-Olivier Méhu
Supporto tecnico e logistico : Manuel Goepfert
Aiuto per la traduzione : Arnaldo La Scala

Contatto : metmap@orbifly.com




FONTI E CREDITI :

   NOAA